KHEY/HEY METAR and TAF weather

Enter ICAO airport designator
Station Type Date Time Source
KHEY METAR 2021/01/16 02:58 UTC NOAA

KHEY 160258Z AUTO 29004KT 10SM CLR 07/M08 A2984 RMK AO2 SLP107 T00721077 52024


Station Type Date Time Source
KHEY Decoded METAR 2021/01/16 02:58 UTC NOAA

Hanchey AHP / Ozark, AL, United States (KHEY) 31-21N 085-40W
Jan 15, 2021 - 09:58 PM EST / 2021.01.16 0258 UTC
Wind: from the WNW (290 degrees) at 5 MPH (4 KT):0
Visibility: 10 mile(s):0
Sky conditions: clear
Temperature: 45.0 F (7.2 C)
Dew Point: 18.1 F (-7.7 C)
Relative Humidity: 33%
Pressure (altimeter): 29.84 in. Hg (1010 hPa)
Pressure tendency: 0.07 inches (2.4 hPa) higher than three hours ago
ob: KHEY 160258Z AUTO 29004KT 10SM CLR 07/M08 A2984 RMK AO2 SLP107 T00721077 52024
cycle: 3

Station Type Date Time Source
KHEY TAF UTC NOAA

Error!

Example: see airport list